sensor_id;sensor_type;location;lat;lon;timestamp;P1;durP1;ratioP1;P2;durP2;ratioP2
17564;SDS011;62994;52.126;5.596;2023-05-14T00:00:54;11.30;;;10.20;;
17564;SDS011;62994;52.126;5.596;2023-05-14T00:03:48;10.32;;;9.50;;
17564;SDS011;62994;52.126;5.596;2023-05-14T00:06:38;10.52;;;9.60;;
17564;SDS011;62994;52.126;5.596;2023-05-14T00:09:19;9.40;;;8.65;;
17564;SDS011;62994;52.126;5.596;2023-05-14T00:21:27;10.82;;;10.00;;
17564;SDS011;62994;52.126;5.596;2023-05-14T00:23:54;10.88;;;9.82;;
17564;SDS011;62994;52.126;5.596;2023-05-14T00:26:36;11.80;;;10.57;;
17564;SDS011;62994;52.126;5.596;2023-05-14T00:29:10;10.15;;;9.32;;
17564;SDS011;62994;52.126;5.596;2023-05-14T00:31:50;10.43;;;9.52;;
17564;SDS011;62994;52.126;5.596;2023-05-14T00:34:22;9.10;;;8.57;;
17564;SDS011;62994;52.126;5.596;2023-05-14T00:36:59;11.15;;;10.05;;
17564;SDS011;62994;52.126;5.596;2023-05-14T00:39:33;10.10;;;9.18;;
17564;SDS011;62994;52.126;5.596;2023-05-14T00:42:16;11.25;;;10.10;;
17564;SDS011;62994;52.126;5.596;2023-05-14T00:44:48;11.18;;;9.98;;
17564;SDS011;62994;52.126;5.596;2023-05-14T00:47:23;11.70;;;10.50;;
17564;SDS011;62994;52.126;5.596;2023-05-14T00:50:00;11.30;;;10.15;;
17564;SDS011;62994;52.126;5.596;2023-05-14T00:52:33;10.32;;;9.05;;
17564;SDS011;62994;52.126;5.596;2023-05-14T00:55:18;11.82;;;10.05;;
17564;SDS011;62994;52.126;5.596;2023-05-14T00:57:50;11.48;;;9.98;;
17564;SDS011;62994;52.126;5.596;2023-05-14T01:00:22;11.20;;;10.00;;
17564;SDS011;62994;52.126;5.596;2023-05-14T01:02:56;15.60;;;9.73;;
17564;SDS011;62994;52.126;5.596;2023-05-14T01:05:42;11.07;;;9.80;;
17564;SDS011;62994;52.126;5.596;2023-05-14T01:08:39;10.18;;;9.07;;
17564;SDS011;62994;52.126;5.596;2023-05-14T01:11:25;10.73;;;9.75;;
17564;SDS011;62994;52.126;5.596;2023-05-14T01:14:17;10.10;;;8.98;;
17564;SDS011;62994;52.126;5.596;2023-05-14T01:17:01;9.77;;;8.95;;
17564;SDS011;62994;52.126;5.596;2023-05-14T01:19:38;9.52;;;8.88;;
17564;SDS011;62994;52.126;5.596;2023-05-14T01:22:10;9.70;;;9.10;;
17564;SDS011;62994;52.126;5.596;2023-05-14T01:24:45;10.60;;;9.63;;
17564;SDS011;62994;52.126;5.596;2023-05-14T01:27:20;10.38;;;9.38;;
17564;SDS011;62994;52.126;5.596;2023-05-14T01:30:00;10.38;;;9.48;;
17564;SDS011;62994;52.126;5.596;2023-05-14T01:32:38;10.95;;;9.80;;
17564;SDS011;62994;52.126;5.596;2023-05-14T01:35:45;10.57;;;9.27;;
17564;SDS011;62994;52.126;5.596;2023-05-14T01:38:36;8.75;;;8.02;;
17564;SDS011;62994;52.126;5.596;2023-05-14T01:41:14;14.55;;;10.90;;
17564;SDS011;62994;52.126;5.596;2023-05-14T01:43:50;9.50;;;8.90;;
17564;SDS011;62994;52.126;5.596;2023-05-14T01:46:23;10.27;;;9.13;;
17564;SDS011;62994;52.126;5.596;2023-05-14T01:49:01;10.57;;;9.57;;
17564;SDS011;62994;52.126;5.596;2023-05-14T01:52:02;9.82;;;8.85;;
17564;SDS011;62994;52.126;5.596;2023-05-14T01:54:45;9.18;;;8.38;;
17564;SDS011;62994;52.126;5.596;2023-05-14T01:57:19;13.30;;;10.10;;
17564;SDS011;62994;52.126;5.596;2023-05-14T01:59:50;10.77;;;9.07;;
17564;SDS011;62994;52.126;5.596;2023-05-14T02:02:19;10.95;;;9.95;;
17564;SDS011;62994;52.126;5.596;2023-05-14T02:04:50;10.07;;;9.38;;
17564;SDS011;62994;52.126;5.596;2023-05-14T02:07:28;10.02;;;9.15;;
17564;SDS011;62994;52.126;5.596;2023-05-14T02:10:10;9.43;;;8.63;;
17564;SDS011;62994;52.126;5.596;2023-05-14T02:12:39;9.20;;;8.60;;
17564;SDS011;62994;52.126;5.596;2023-05-14T02:15:08;10.45;;;9.45;;
17564;SDS011;62994;52.126;5.596;2023-05-14T02:17:41;10.98;;;10.07;;
17564;SDS011;62994;52.126;5.596;2023-05-14T02:20:12;11.85;;;8.93;;
17564;SDS011;62994;52.126;5.596;2023-05-14T02:22:56;8.95;;;8.25;;
17564;SDS011;62994;52.126;5.596;2023-05-14T02:25:36;10.13;;;9.23;;
17564;SDS011;62994;52.126;5.596;2023-05-14T02:28:03;10.30;;;9.40;;
17564;SDS011;62994;52.126;5.596;2023-05-14T02:30:30;10.20;;;9.45;;
17564;SDS011;62994;52.126;5.596;2023-05-14T02:33:09;9.90;;;9.05;;
17564;SDS011;62994;52.126;5.596;2023-05-14T02:35:44;10.98;;;9.95;;
17564;SDS011;62994;52.126;5.596;2023-05-14T02:38:16;9.52;;;8.73;;
17564;SDS011;62994;52.126;5.596;2023-05-14T02:40:59;12.05;;;9.00;;
17564;SDS011;62994;52.126;5.596;2023-05-14T02:43:42;10.50;;;9.70;;
17564;SDS011;62994;52.126;5.596;2023-05-14T02:46:18;10.55;;;9.32;;
17564;SDS011;62994;52.126;5.596;2023-05-14T02:48:46;17.55;;;9.93;;
17564;SDS011;62994;52.126;5.596;2023-05-14T02:51:28;10.30;;;9.25;;
17564;SDS011;62994;52.126;5.596;2023-05-14T02:54:24;10.35;;;9.27;;
17564;SDS011;62994;52.126;5.596;2023-05-14T02:57:02;14.20;;;9.60;;
17564;SDS011;62994;52.126;5.596;2023-05-14T02:59:36;12.18;;;10.02;;
17564;SDS011;62994;52.126;5.596;2023-05-14T03:02:30;14.57;;;10.73;;
17564;SDS011;62994;52.126;5.596;2023-05-14T03:05:14;10.80;;;9.75;;
17564;SDS011;62994;52.126;5.596;2023-05-14T03:07:45;12.40;;;10.30;;
17564;SDS011;62994;52.126;5.596;2023-05-14T03:10:33;11.90;;;10.63;;
17564;SDS011;62994;52.126;5.596;2023-05-14T03:13:11;10.43;;;9.50;;
17564;SDS011;62994;52.126;5.596;2023-05-14T03:15:41;10.68;;;9.75;;
17564;SDS011;62994;52.126;5.596;2023-05-14T03:18:11;11.55;;;9.30;;
17564;SDS011;62994;52.126;5.596;2023-05-14T03:20:45;11.85;;;10.85;;
17564;SDS011;62994;52.126;5.596;2023-05-14T03:23:15;9.82;;;9.10;;
17564;SDS011;62994;52.126;5.596;2023-05-14T03:25:47;13.05;;;10.77;;
17564;SDS011;62994;52.126;5.596;2023-05-14T03:28:33;11.98;;;10.65;;
17564;SDS011;62994;52.126;5.596;2023-05-14T03:31:11;12.25;;;11.15;;
17564;SDS011;62994;52.126;5.596;2023-05-14T03:33:50;12.93;;;11.15;;
17564;SDS011;62994;52.126;5.596;2023-05-14T03:36:19;12.43;;;10.73;;
17564;SDS011;62994;52.126;5.596;2023-05-14T03:39:01;12.68;;;10.63;;
17564;SDS011;62994;52.126;5.596;2023-05-14T03:41:31;11.07;;;10.02;;
17564;SDS011;62994;52.126;5.596;2023-05-14T03:44:00;14.35;;;10.85;;
17564;SDS011;62994;52.126;5.596;2023-05-14T03:46:30;10.68;;;9.63;;
17564;SDS011;62994;52.126;5.596;2023-05-14T03:49:13;13.50;;;10.70;;
17564;SDS011;62994;52.126;5.596;2023-05-14T03:51:42;12.88;;;10.50;;
17564;SDS011;62994;52.126;5.596;2023-05-14T03:54:11;12.35;;;11.20;;
17564;SDS011;62994;52.126;5.596;2023-05-14T03:56:51;12.48;;;11.30;;
17564;SDS011;62994;52.126;5.596;2023-05-14T03:59:28;11.15;;;10.25;;
17564;SDS011;62994;52.126;5.596;2023-05-14T04:02:01;11.25;;;10.23;;
17564;SDS011;62994;52.126;5.596;2023-05-14T04:04:41;11.00;;;9.95;;
17564;SDS011;62994;52.126;5.596;2023-05-14T04:07:25;11.48;;;10.40;;
17564;SDS011;62994;52.126;5.596;2023-05-14T04:09:56;13.43;;;10.70;;
17564;SDS011;62994;52.126;5.596;2023-05-14T04:12:29;11.75;;;10.77;;
17564;SDS011;62994;52.126;5.596;2023-05-14T04:15:10;11.15;;;10.05;;
17564;SDS011;62994;52.126;5.596;2023-05-14T04:17:40;11.30;;;10.20;;
17564;SDS011;62994;52.126;5.596;2023-05-14T04:20:07;10.98;;;10.07;;
17564;SDS011;62994;52.126;5.596;2023-05-14T04:22:42;11.38;;;10.38;;
17564;SDS011;62994;52.126;5.596;2023-05-14T04:25:16;11.98;;;10.68;;
17564;SDS011;62994;52.126;5.596;2023-05-14T04:27:46;12.63;;;10.52;;
17564;SDS011;62994;52.126;5.596;2023-05-14T04:30:19;13.68;;;10.80;;
17564;SDS011;62994;52.126;5.596;2023-05-14T04:32:52;12.80;;;11.50;;
17564;SDS011;62994;52.126;5.596;2023-05-14T04:35:27;11.60;;;9.95;;
17564;SDS011;62994;52.126;5.596;2023-05-14T04:38:07;12.32;;;11.15;;
17564;SDS011;62994;52.126;5.596;2023-05-14T04:40:41;12.45;;;11.18;;
17564;SDS011;62994;52.126;5.596;2023-05-14T04:43:11;12.35;;;11.23;;
17564;SDS011;62994;52.126;5.596;2023-05-14T04:45:40;11.18;;;9.95;;
17564;SDS011;62994;52.126;5.596;2023-05-14T04:48:18;11.77;;;10.57;;
17564;SDS011;62994;52.126;5.596;2023-05-14T04:50:47;10.75;;;9.77;;
17564;SDS011;62994;52.126;5.596;2023-05-14T04:53:18;16.17;;;11.50;;
17564;SDS011;62994;52.126;5.596;2023-05-14T04:55:58;12.82;;;11.65;;
17564;SDS011;62994;52.126;5.596;2023-05-14T04:58:41;12.48;;;11.23;;
17564;SDS011;62994;52.126;5.596;2023-05-14T05:01:18;11.40;;;10.38;;
17564;SDS011;62994;52.126;5.596;2023-05-14T05:03:49;12.05;;;10.95;;
17564;SDS011;62994;52.126;5.596;2023-05-14T05:06:27;13.20;;;10.15;;
17564;SDS011;62994;52.126;5.596;2023-05-14T05:09:01;11.57;;;10.52;;
17564;SDS011;62994;52.126;5.596;2023-05-14T05:11:34;12.18;;;10.95;;
17564;SDS011;62994;52.126;5.596;2023-05-14T05:14:10;11.18;;;10.13;;
17564;SDS011;62994;52.126;5.596;2023-05-14T05:16:49;11.38;;;10.35;;
17564;SDS011;62994;52.126;5.596;2023-05-14T05:19:20;12.07;;;10.13;;
17564;SDS011;62994;52.126;5.596;2023-05-14T05:21:50;13.13;;;10.15;;
17564;SDS011;62994;52.126;5.596;2023-05-14T05:24:27;11.63;;;10.60;;
17564;SDS011;62994;52.126;5.596;2023-05-14T05:26:54;11.13;;;9.88;;
17564;SDS011;62994;52.126;5.596;2023-05-14T05:29:27;12.07;;;9.73;;
17564;SDS011;62994;52.126;5.596;2023-05-14T05:32:00;10.40;;;9.25;;
17564;SDS011;62994;52.126;5.596;2023-05-14T05:34:30;9.45;;;8.90;;
17564;SDS011;62994;52.126;5.596;2023-05-14T05:36:58;8.90;;;8.23;;
17564;SDS011;62994;52.126;5.596;2023-05-14T05:39:31;11.25;;;9.60;;
17564;SDS011;62994;52.126;5.596;2023-05-14T05:42:05;11.88;;;9.52;;
17564;SDS011;62994;52.126;5.596;2023-05-14T05:44:36;11.75;;;10.52;;
17564;SDS011;62994;52.126;5.596;2023-05-14T05:47:30;10.77;;;9.73;;
17564;SDS011;62994;52.126;5.596;2023-05-14T05:50:27;11.45;;;8.73;;
17564;SDS011;62994;52.126;5.596;2023-05-14T05:52:57;12.55;;;9.60;;
17564;SDS011;62994;52.126;5.596;2023-05-14T05:55:29;8.88;;;8.25;;
17564;SDS011;62994;52.126;5.596;2023-05-14T05:58:08;11.45;;;8.77;;
17564;SDS011;62994;52.126;5.596;2023-05-14T06:00:48;9.65;;;8.82;;
17564;SDS011;62994;52.126;5.596;2023-05-14T06:03:19;10.88;;;9.80;;
17564;SDS011;62994;52.126;5.596;2023-05-14T06:05:51;11.48;;;9.65;;
17564;SDS011;62994;52.126;5.596;2023-05-14T06:08:21;11.00;;;9.57;;
17564;SDS011;62994;52.126;5.596;2023-05-14T06:10:54;11.63;;;10.30;;
17564;SDS011;62994;52.126;5.596;2023-05-14T06:13:29;10.57;;;9.68;;
17564;SDS011;62994;52.126;5.596;2023-05-14T06:16:10;11.00;;;9.68;;
17564;SDS011;62994;52.126;5.596;2023-05-14T06:18:45;9.98;;;9.10;;
17564;SDS011;62994;52.126;5.596;2023-05-14T06:21:25;9.57;;;8.88;;
17564;SDS011;62994;52.126;5.596;2023-05-14T06:23:53;11.10;;;9.98;;
17564;SDS011;62994;52.126;5.596;2023-05-14T06:26:23;10.38;;;9.50;;
17564;SDS011;62994;52.126;5.596;2023-05-14T06:29:01;8.52;;;7.93;;
17564;SDS011;62994;52.126;5.596;2023-05-14T06:31:33;9.48;;;8.68;;
17564;SDS011;62994;52.126;5.596;2023-05-14T06:34:13;11.32;;;9.68;;
17564;SDS011;62994;52.126;5.596;2023-05-14T06:36:44;9.90;;;9.00;;
17564;SDS011;62994;52.126;5.596;2023-05-14T06:39:33;8.70;;;8.20;;
17564;SDS011;62994;52.126;5.596;2023-05-14T06:42:14;10.10;;;9.23;;
17564;SDS011;62994;52.126;5.596;2023-05-14T06:44:44;10.25;;;8.93;;
17564;SDS011;62994;52.126;5.596;2023-05-14T06:47:27;9.98;;;9.25;;
17564;SDS011;62994;52.126;5.596;2023-05-14T06:52:52;9.52;;;8.68;;
17564;SDS011;62994;52.126;5.596;2023-05-14T06:55:27;10.68;;;9.15;;
17564;SDS011;62994;52.126;5.596;2023-05-14T06:58:11;9.02;;;8.43;;
17564;SDS011;62994;52.126;5.596;2023-05-14T07:00:38;10.98;;;9.65;;
17564;SDS011;62994;52.126;5.596;2023-05-14T07:03:17;9.20;;;8.60;;
17564;SDS011;62994;52.126;5.596;2023-05-14T07:09:36;9.05;;;8.27;;
17564;SDS011;62994;52.126;5.596;2023-05-14T07:12:19;10.43;;;9.32;;
17564;SDS011;62994;52.126;5.596;2023-05-14T07:14:55;9.80;;;8.88;;
17564;SDS011;62994;52.126;5.596;2023-05-14T07:17:36;8.98;;;8.38;;
17564;SDS011;62994;52.126;5.596;2023-05-14T07:20:35;10.48;;;9.45;;
17564;SDS011;62994;52.126;5.596;2023-05-14T07:23:13;8.68;;;8.07;;
17564;SDS011;62994;52.126;5.596;2023-05-14T07:26:52;8.60;;;7.50;;
17564;SDS011;62994;52.126;5.596;2023-05-14T07:29:07;9.60;;;8.65;;
17564;SDS011;62994;52.126;5.596;2023-05-14T07:31:41;10.10;;;9.15;;
17564;SDS011;62994;52.126;5.596;2023-05-14T07:34:46;8.02;;;7.30;;
17564;SDS011;62994;52.126;5.596;2023-05-14T07:37:22;8.55;;;7.88;;
17564;SDS011;62994;52.126;5.596;2023-05-14T07:40:00;8.77;;;8.02;;
17564;SDS011;62994;52.126;5.596;2023-05-14T07:42:34;9.25;;;8.48;;
17564;SDS011;62994;52.126;5.596;2023-05-14T07:45:04;9.43;;;8.68;;
17564;SDS011;62994;52.126;5.596;2023-05-14T07:47:43;8.95;;;8.25;;
17564;SDS011;62994;52.126;5.596;2023-05-14T07:50:21;9.30;;;8.13;;
17564;SDS011;62994;52.126;5.596;2023-05-14T07:52:51;9.20;;;8.38;;
17564;SDS011;62994;52.126;5.596;2023-05-14T07:58:04;8.52;;;7.65;;
17564;SDS011;62994;52.126;5.596;2023-05-14T08:00:40;8.50;;;7.82;;
17564;SDS011;62994;52.126;5.596;2023-05-14T08:03:08;8.13;;;7.38;;
17564;SDS011;62994;52.126;5.596;2023-05-14T08:05:38;8.45;;;7.85;;
17564;SDS011;62994;52.126;5.596;2023-05-14T08:08:18;8.70;;;8.00;;
17564;SDS011;62994;52.126;5.596;2023-05-14T08:13:54;8.27;;;7.65;;
17564;SDS011;62994;52.126;5.596;2023-05-14T08:17:06;8.10;;;7.32;;
17564;SDS011;62994;52.126;5.596;2023-05-14T08:19:41;8.35;;;7.55;;
17564;SDS011;62994;52.126;5.596;2023-05-14T08:22:28;8.85;;;7.95;;
17564;SDS011;62994;52.126;5.596;2023-05-14T08:24:56;9.40;;;8.55;;
17564;SDS011;62994;52.126;5.596;2023-05-14T08:27:46;11.77;;;8.23;;
17564;SDS011;62994;52.126;5.596;2023-05-14T08:30:34;9.00;;;8.00;;
17564;SDS011;62994;52.126;5.596;2023-05-14T08:33:04;8.93;;;8.05;;
17564;SDS011;62994;52.126;5.596;2023-05-14T08:35:34;7.70;;;6.95;;
17564;SDS011;62994;52.126;5.596;2023-05-14T08:38:12;7.85;;;7.25;;
17564;SDS011;62994;52.126;5.596;2023-05-14T08:40:46;8.18;;;7.57;;
17564;SDS011;62994;52.126;5.596;2023-05-14T08:43:33;11.50;;;7.93;;
17564;SDS011;62994;52.126;5.596;2023-05-14T08:46:13;8.23;;;7.43;;
17564;SDS011;62994;52.126;5.596;2023-05-14T08:48:42;10.77;;;8.25;;
17564;SDS011;62994;52.126;5.596;2023-05-14T08:51:24;7.40;;;6.80;;
17564;SDS011;62994;52.126;5.596;2023-05-14T08:54:19;7.20;;;6.60;;
17564;SDS011;62994;52.126;5.596;2023-05-14T08:56:56;7.68;;;7.00;;
17564;SDS011;62994;52.126;5.596;2023-05-14T08:59:27;7.68;;;6.88;;
17564;SDS011;62994;52.126;5.596;2023-05-14T09:02:01;7.47;;;6.88;;
17564;SDS011;62994;52.126;5.596;2023-05-14T09:04:44;7.53;;;6.82;;
17564;SDS011;62994;52.126;5.596;2023-05-14T09:07:30;7.65;;;6.80;;
17564;SDS011;62994;52.126;5.596;2023-05-14T09:13:28;6.38;;;5.97;;
17564;SDS011;62994;52.126;5.596;2023-05-14T09:16:01;8.02;;;7.25;;
17564;SDS011;62994;52.126;5.596;2023-05-14T09:22:11;7.22;;;6.60;;
17564;SDS011;62994;52.126;5.596;2023-05-14T09:25:06;7.72;;;6.80;;
17564;SDS011;62994;52.126;5.596;2023-05-14T09:28:38;7.75;;;5.95;;
17564;SDS011;62994;52.126;5.596;2023-05-14T09:31:13;7.35;;;5.85;;
17564;SDS011;62994;52.126;5.596;2023-05-14T09:33:59;7.22;;;6.63;;
17564;SDS011;62994;52.126;5.596;2023-05-14T09:36:38;8.03;;;7.23;;
17564;SDS011;62994;52.126;5.596;2023-05-14T09:42:45;6.60;;;5.97;;
17564;SDS011;62994;52.126;5.596;2023-05-14T09:48:29;5.78;;;5.30;;
17564;SDS011;62994;52.126;5.596;2023-05-14T09:53:20;7.50;;;6.05;;
17564;SDS011;62994;52.126;5.596;2023-05-14T09:54:35;6.00;;;5.55;;
17564;SDS011;62994;52.126;5.596;2023-05-14T10:03:41;7.03;;;6.35;;
17564;SDS011;62994;52.126;5.596;2023-05-14T10:06:29;8.60;;;6.10;;
17564;SDS011;62994;52.126;5.596;2023-05-14T10:09:11;7.88;;;6.13;;
17564;SDS011;62994;52.126;5.596;2023-05-14T10:13:12;6.95;;;6.32;;
17564;SDS011;62994;52.126;5.596;2023-05-14T10:15:15;9.88;;;6.70;;
17564;SDS011;62994;52.126;5.596;2023-05-14T10:18:08;8.65;;;6.72;;
17564;SDS011;62994;52.126;5.596;2023-05-14T10:20:59;8.52;;;6.00;;
17564;SDS011;62994;52.126;5.596;2023-05-14T10:24:48;5.13;;;4.68;;
17564;SDS011;62994;52.126;5.596;2023-05-14T10:26:44;6.75;;;6.18;;
17564;SDS011;62994;52.126;5.596;2023-05-14T10:29:30;6.93;;;6.28;;
17564;SDS011;62994;52.126;5.596;2023-05-14T10:32:32;6.15;;;5.53;;
17564;SDS011;62994;52.126;5.596;2023-05-14T10:35:15;7.05;;;5.47;;
17564;SDS011;62994;52.126;5.596;2023-05-14T10:38:03;5.25;;;4.93;;
17564;SDS011;62994;52.126;5.596;2023-05-14T10:40:58;6.10;;;5.60;;
17564;SDS011;62994;52.126;5.596;2023-05-14T10:44:04;5.35;;;4.95;;
17564;SDS011;62994;52.126;5.596;2023-05-14T10:46:24;7.85;;;4.90;;
17564;SDS011;62994;52.126;5.596;2023-05-14T10:49:05;8.52;;;5.32;;
17564;SDS011;62994;52.126;5.596;2023-05-14T10:51:35;5.82;;;5.32;;
17564;SDS011;62994;52.126;5.596;2023-05-14T10:54:07;6.07;;;5.40;;
17564;SDS011;62994;52.126;5.596;2023-05-14T10:56:40;5.43;;;5.03;;
17564;SDS011;62994;52.126;5.596;2023-05-14T10:59:24;5.75;;;4.88;;
17564;SDS011;62994;52.126;5.596;2023-05-14T11:02:05;4.97;;;4.60;;
17564;SDS011;62994;52.126;5.596;2023-05-14T11:05:13;8.00;;;5.53;;
17564;SDS011;62994;52.126;5.596;2023-05-14T11:07:53;8.75;;;5.53;;
17564;SDS011;62994;52.126;5.596;2023-05-14T11:13:25;5.05;;;4.55;;
17564;SDS011;62994;52.126;5.596;2023-05-14T11:16:03;4.70;;;4.28;;
17564;SDS011;62994;52.126;5.596;2023-05-14T11:19:04;9.00;;;4.68;;
17564;SDS011;62994;52.126;5.596;2023-05-14T11:21:42;7.85;;;4.60;;
17564;SDS011;62994;52.126;5.596;2023-05-14T11:24:12;5.22;;;4.70;;
17564;SDS011;62994;52.126;5.596;2023-05-14T11:26:58;6.10;;;3.95;;
17564;SDS011;62994;52.126;5.596;2023-05-14T11:32:29;5.30;;;4.30;;
17564;SDS011;62994;52.126;5.596;2023-05-14T11:35:22;5.32;;;4.82;;
17564;SDS011;62994;52.126;5.596;2023-05-14T11:37:58;4.80;;;4.45;;
17564;SDS011;62994;52.126;5.596;2023-05-14T11:40:32;4.43;;;4.13;;
17564;SDS011;62994;52.126;5.596;2023-05-14T11:43:20;5.25;;;4.50;;
17564;SDS011;62994;52.126;5.596;2023-05-14T11:45:53;4.68;;;4.28;;
17564;SDS011;62994;52.126;5.596;2023-05-14T11:48:37;4.90;;;4.47;;
17564;SDS011;62994;52.126;5.596;2023-05-14T11:51:14;3.95;;;3.60;;
17564;SDS011;62994;52.126;5.596;2023-05-14T11:54:32;3.85;;;3.45;;
17564;SDS011;62994;52.126;5.596;2023-05-14T11:56:53;4.32;;;3.95;;
17564;SDS011;62994;52.126;5.596;2023-05-14T12:00:00;4.00;;;3.70;;
17564;SDS011;62994;52.126;5.596;2023-05-14T12:02:48;4.35;;;4.05;;
17564;SDS011;62994;52.126;5.596;2023-05-14T12:06:08;9.02;;;5.05;;
17564;SDS011;62994;52.126;5.596;2023-05-14T12:08:46;4.57;;;4.18;;
17564;SDS011;62994;52.126;5.596;2023-05-14T12:11:38;8.25;;;4.72;;
17564;SDS011;62994;52.126;5.596;2023-05-14T12:14:15;4.93;;;4.38;;
17564;SDS011;62994;52.126;5.596;2023-05-14T12:17:04;4.72;;;4.32;;
17564;SDS011;62994;52.126;5.596;2023-05-14T12:19:40;4.88;;;3.78;;
17564;SDS011;62994;52.126;5.596;2023-05-14T12:22:19;5.13;;;4.07;;
17564;SDS011;62994;52.126;5.596;2023-05-14T12:24:53;4.45;;;4.05;;
17564;SDS011;62994;52.126;5.596;2023-05-14T12:27:29;6.75;;;4.20;;
17564;SDS011;62994;52.126;5.596;2023-05-14T12:30:17;5.90;;;4.18;;
17564;SDS011;62994;52.126;5.596;2023-05-14T12:32:57;5.18;;;3.95;;
17564;SDS011;62994;52.126;5.596;2023-05-14T12:35:41;4.38;;;3.97;;
17564;SDS011;62994;52.126;5.596;2023-05-14T12:38:58;4.35;;;3.97;;
17564;SDS011;62994;52.126;5.596;2023-05-14T12:41:41;4.63;;;4.22;;
17564;SDS011;62994;52.126;5.596;2023-05-14T12:44:15;10.48;;;4.22;;
17564;SDS011;62994;52.126;5.596;2023-05-14T12:47:19;7.22;;;4.40;;
17564;SDS011;62994;52.126;5.596;2023-05-14T12:50:09;3.72;;;3.42;;
17564;SDS011;62994;52.126;5.596;2023-05-14T12:52:47;3.97;;;3.65;;
17564;SDS011;62994;52.126;5.596;2023-05-14T12:55:28;4.68;;;4.28;;
17564;SDS011;62994;52.126;5.596;2023-05-14T12:58:06;4.05;;;3.63;;
17564;SDS011;62994;52.126;5.596;2023-05-14T13:00:38;3.45;;;3.25;;
17564;SDS011;62994;52.126;5.596;2023-05-14T13:03:34;3.75;;;3.45;;
17564;SDS011;62994;52.126;5.596;2023-05-14T13:06:17;3.90;;;3.25;;
17564;SDS011;62994;52.126;5.596;2023-05-14T13:09:02;5.90;;;4.10;;
17564;SDS011;62994;52.126;5.596;2023-05-14T13:11:44;2.80;;;2.60;;
17564;SDS011;62994;52.126;5.596;2023-05-14T13:17:18;5.93;;;4.20;;
17564;SDS011;62994;52.126;5.596;2023-05-14T13:19:52;4.40;;;4.10;;
17564;SDS011;62994;52.126;5.596;2023-05-14T13:22:59;4.80;;;4.05;;
17564;SDS011;62994;52.126;5.596;2023-05-14T13:25:51;4.70;;;3.50;;
17564;SDS011;62994;52.126;5.596;2023-05-14T13:28:33;5.40;;;4.00;;
17564;SDS011;62994;52.126;5.596;2023-05-14T13:31:17;5.40;;;3.75;;
17564;SDS011;62994;52.126;5.596;2023-05-14T13:33:57;6.95;;;3.53;;
17564;SDS011;62994;52.126;5.596;2023-05-14T13:37:11;4.15;;;3.55;;
17564;SDS011;62994;52.126;5.596;2023-05-14T13:43:20;5.43;;;3.22;;
17564;SDS011;62994;52.126;5.596;2023-05-14T13:46:06;3.10;;;2.90;;
17564;SDS011;62994;52.126;5.596;2023-05-14T13:48:49;3.08;;;2.80;;
17564;SDS011;62994;52.126;5.596;2023-05-14T13:51:53;3.20;;;3.00;;
17564;SDS011;62994;52.126;5.596;2023-05-14T13:54:33;3.15;;;2.72;;
17564;SDS011;62994;52.126;5.596;2023-05-14T13:57:18;5.13;;;3.47;;
17564;SDS011;62994;52.126;5.596;2023-05-14T13:59:53;3.80;;;3.50;;
17564;SDS011;62994;52.126;5.596;2023-05-14T14:02:42;3.90;;;3.50;;
17564;SDS011;62994;52.126;5.596;2023-05-14T14:05:12;4.10;;;3.53;;
17564;SDS011;62994;52.126;5.596;2023-05-14T14:07:50;4.03;;;3.55;;
17564;SDS011;62994;52.126;5.596;2023-05-14T14:10:57;4.43;;;3.90;;
17564;SDS011;62994;52.126;5.596;2023-05-14T14:13:22;6.05;;;3.88;;
17564;SDS011;62994;52.126;5.596;2023-05-14T14:16:14;3.30;;;3.10;;
17564;SDS011;62994;52.126;5.596;2023-05-14T14:18:57;4.25;;;3.85;;
17564;SDS011;62994;52.126;5.596;2023-05-14T14:21:38;3.85;;;3.40;;
17564;SDS011;62994;52.126;5.596;2023-05-14T14:24:34;7.18;;;4.10;;
17564;SDS011;62994;52.126;5.596;2023-05-14T14:27:38;4.07;;;3.67;;
17564;SDS011;62994;52.126;5.596;2023-05-14T14:36:32;7.45;;;4.47;;
17564;SDS011;62994;52.126;5.596;2023-05-14T14:39:09;4.75;;;3.97;;
17564;SDS011;62994;52.126;5.596;2023-05-14T14:41:40;4.13;;;3.72;;
17564;SDS011;62994;52.126;5.596;2023-05-14T14:44:11;4.47;;;3.38;;
17564;SDS011;62994;52.126;5.596;2023-05-14T14:46:44;3.72;;;3.15;;
17564;SDS011;62994;52.126;5.596;2023-05-14T14:49:21;8.27;;;4.57;;
17564;SDS011;62994;52.126;5.596;2023-05-14T14:51:55;4.88;;;4.07;;
17564;SDS011;62994;52.126;5.596;2023-05-14T14:54:54;6.10;;;3.13;;
17564;SDS011;62994;52.126;5.596;2023-05-14T14:57:26;4.07;;;3.70;;
17564;SDS011;62994;52.126;5.596;2023-05-14T15:00:06;4.68;;;4.25;;
17564;SDS011;62994;52.126;5.596;2023-05-14T15:02:45;6.10;;;4.00;;
17564;SDS011;62994;52.126;5.596;2023-05-14T15:05:44;5.38;;;3.92;;
17564;SDS011;62994;52.126;5.596;2023-05-14T15:08:31;4.38;;;3.33;;
17564;SDS011;62994;52.126;5.596;2023-05-14T15:11:15;6.90;;;4.50;;
17564;SDS011;62994;52.126;5.596;2023-05-14T15:13:47;4.45;;;4.05;;
17564;SDS011;62994;52.126;5.596;2023-05-14T15:16:22;4.15;;;3.72;;
17564;SDS011;62994;52.126;5.596;2023-05-14T15:19:05;4.28;;;3.47;;
17564;SDS011;62994;52.126;5.596;2023-05-14T15:21:53;6.90;;;4.53;;
17564;SDS011;62994;52.126;5.596;2023-05-14T15:24:23;5.28;;;3.90;;
17564;SDS011;62994;52.126;5.596;2023-05-14T15:26:54;6.85;;;3.70;;
17564;SDS011;62994;52.126;5.596;2023-05-14T15:29:37;4.43;;;3.97;;
17564;SDS011;62994;52.126;5.596;2023-05-14T15:32:08;5.78;;;4.25;;
17564;SDS011;62994;52.126;5.596;2023-05-14T15:34:38;4.88;;;3.90;;
17564;SDS011;62994;52.126;5.596;2023-05-14T15:37:11;8.75;;;4.18;;
17564;SDS011;62994;52.126;5.596;2023-05-14T15:39:56;6.65;;;4.22;;
17564;SDS011;62994;52.126;5.596;2023-05-14T15:42:33;6.10;;;5.32;;
17564;SDS011;62994;52.126;5.596;2023-05-14T15:45:06;8.90;;;4.72;;
17564;SDS011;62994;52.126;5.596;2023-05-14T15:47:49;3.85;;;3.50;;
17564;SDS011;62994;52.126;5.596;2023-05-14T15:50:18;7.63;;;4.40;;
17564;SDS011;62994;52.126;5.596;2023-05-14T15:56:01;6.22;;;4.57;;
17564;SDS011;62994;52.126;5.596;2023-05-14T15:58:58;5.63;;;3.88;;
17564;SDS011;62994;52.126;5.596;2023-05-14T16:01:28;4.00;;;3.70;;
17564;SDS011;62994;52.126;5.596;2023-05-14T16:04:02;8.50;;;4.95;;
17564;SDS011;62994;52.126;5.596;2023-05-14T16:06:39;6.43;;;4.93;;
17564;SDS011;62994;52.126;5.596;2023-05-14T16:09:13;4.97;;;4.57;;
17564;SDS011;62994;52.126;5.596;2023-05-14T16:11:45;4.93;;;4.50;;
17564;SDS011;62994;52.126;5.596;2023-05-14T16:14:22;4.88;;;4.45;;
17564;SDS011;62994;52.126;5.596;2023-05-14T16:16:53;5.60;;;4.30;;
17564;SDS011;62994;52.126;5.596;2023-05-14T16:19:37;4.15;;;3.85;;
17564;SDS011;62994;52.126;5.596;2023-05-14T16:22:20;4.32;;;4.03;;
17564;SDS011;62994;52.126;5.596;2023-05-14T16:24:58;7.93;;;4.90;;
17564;SDS011;62994;52.126;5.596;2023-05-14T16:27:36;4.93;;;4.47;;
17564;SDS011;62994;52.126;5.596;2023-05-14T16:30:07;6.28;;;4.32;;
17564;SDS011;62994;52.126;5.596;2023-05-14T16:32:38;5.85;;;4.55;;
17564;SDS011;62994;52.126;5.596;2023-05-14T16:35:31;4.43;;;4.03;;
17564;SDS011;62994;52.126;5.596;2023-05-14T16:38:12;5.45;;;4.30;;
17564;SDS011;62994;52.126;5.596;2023-05-14T16:41:00;6.07;;;4.18;;
17564;SDS011;62994;52.126;5.596;2023-05-14T16:43:34;3.85;;;3.55;;
17564;SDS011;62994;52.126;5.596;2023-05-14T16:46:22;7.28;;;4.50;;
17564;SDS011;62994;52.126;5.596;2023-05-14T16:49:26;6.72;;;4.22;;
17564;SDS011;62994;52.126;5.596;2023-05-14T16:52:04;7.57;;;4.45;;
17564;SDS011;62994;52.126;5.596;2023-05-14T16:54:48;5.20;;;4.70;;
17564;SDS011;62994;52.126;5.596;2023-05-14T16:57:30;4.95;;;4.20;;
17564;SDS011;62994;52.126;5.596;2023-05-14T17:00:09;5.00;;;4.05;;